Anatone, WA

6:36 AM PDT on August 28, 2014 (GMT -0700)
Montgomery Ridge Road | Change Station
CLOSE
Current Station
Personal Weather Station
Location: Anatone, WA
Elevation: 3300 ft
Nearby Weather Stations

Elev 3300 ft 46.12 °N, 117.01 °W | Updated 4 seconds ago

Clear
Clear
62.8 °F
Feels Like 62.8 °F
N
2.0
Wind Variable Wind from SSW
Gusts 2.5 mph

Today
High -- | Low -- °F
--% Chance of Precip.
Yesterday
High -- | Low -- °F
Precip. -- in
6:03 AM 7:34 PM
Waxing Crescent, 8% visible
Pressure 29.95 in
Visibility 10.0 miles
Clouds Clear
Dew Point 48 °F
Humidity 58%
Rainfall 0.00 in
Snow Depth 0 in
UV 0 out of 12
Pollen 8.00 out of 12
Air Quality Not available.
Flu Activity Not available.
METAR KLWS 281256Z AUTO 10004KT 10SM CLR 18/09 A2998 RMK AO2 SLP142 T01830094

More Conditions Fewer Conditions

Pressure 29.95 in
Visibility 10.0 miles
Clouds Clear
Dew Point 48 °F
Humidity 58%
Rainfall 0.00 in
Snow Depth 0 in
UV 0 out of 12
Pollen 8.00 out of 12
Air Quality Not available.
Flu Activity Not available.
METAR KLWS 281256Z AUTO 10004KT 10SM CLR 18/09 A2998 RMK AO2 SLP142 T01830094

More Conditions Fewer Conditions

10-Day Weather Forecast

Almanac

Astronomy

Aug. 28, 2014 Rise Set
Actual Time 6:03 AM PDT 7:34 PM PDT
Civil Twilight 5:32 AM PDT 8:05 PM PDT
Nautical Twilight 4:54 AM PDT 8:43 PM PDT
Astronomical Twilight 4:13 AM PDT 9:23 PM PDT
Moon 9:12 AM PDT 8:47 PM PDT
Length of Visible Light 14h 32m
Length of Day
13h 30m
Tomorrow will be 3m 7s shorter.
Waxing Crescent, 8% of the Moon is Illuminated
Today
Waxing Crescent
Sep 2
First Quarter
Sep 8
Full
Sep 15
Last Quarter
Sep 24
New

Today's Extremes

State Highs State Lows

Community

WunderPhotos

Upload Photos

1,747,947 photos uploaded!

Nearby

Snow Depth

Station Depth Elevation
Sourdough Gulch 0 in 4000 ft
Spruce Springs 0 in 5700 ft
Touchet 0 in 5530 ft
Quartz Peak 1 in 4700 ft
Trough 0 in 5300 ft

Earthquake Activity

City Distance Mag. Time & Date
No recent earthquake activity has been reported nearby.
Minimum magnitude displayed is 2.5.

Coastal Water Temperatures

Place Temperature
No Stations Reporting

Nearby Weather Stations